Time;durP1;ratioP1;P1;durP2;ratioP2;P2;SDS_P1;SDS_P2;PMS_P1;PMS_P2;Temp;Humidity;BMP_temperature;BMP_pressure;BME280_temperature;BME280_humidity;BME280_pressure;Samples;Min_cycle;Max_cycle;Signal;HPM_P1;HPM_P2
2023/09/07 00:00:18;;;;;;;26.65;5.93;;;;;;;23.75;100.00;100438.91;5004854;28;20033;-78
2023/09/07 00:02:44;;;;;;;23.45;5.72;;;;;;;23.75;100.00;100436.88;5032682;28;20539;-78
2023/09/07 00:05:09;;;;;;;24.23;5.80;;;;;;;23.71;100.00;100438.88;5020838;28;20030;-78
2023/09/07 00:07:35;;;;;;;19.25;6.07;;;;;;;23.69;100.00;100438.41;5038227;28;20052;-77
2023/09/07 00:10:01;;;;;;;28.52;6.18;;;;;;;23.66;100.00;100435.53;5016958;28;20155;-78
2023/09/07 00:12:26;;;;;;;19.13;5.50;;;;;;;23.62;100.00;100438.28;5021100;28;20039;-78
2023/09/07 00:14:54;;;;;;;22.70;5.63;;;;;;;23.59;100.00;100427.72;5020902;28;20057;-78
2023/09/07 00:17:20;;;;;;;25.67;5.88;;;;;;;23.56;100.00;100425.66;5041153;28;20035;-78
2023/09/07 00:19:50;;;;;;;19.90;5.35;;;;;;;23.51;100.00;100415.47;5008968;28;20044;-78
2023/09/07 00:22:16;;;;;;;23.35;5.97;;;;;;;23.47;100.00;100423.13;5034314;28;20036;-78
2023/09/07 00:24:42;;;;;;;27.30;6.32;;;;;;;23.45;100.00;100416.19;5037002;28;20030;-78
2023/09/07 00:27:07;;;;;;;19.98;6.15;;;;;;;23.42;100.00;100415.75;5020598;28;20482;-78
2023/09/07 00:29:34;;;;;;;23.20;5.88;;;;;;;23.38;100.00;100412.06;4996584;28;20025;-78
2023/09/07 00:32:00;;;;;;;21.13;5.45;;;;;;;23.39;100.00;100410.88;5039340;28;20079;-78
2023/09/07 00:34:25;;;;;;;22.88;6.15;;;;;;;23.36;100.00;100408.00;5023629;28;20025;-78
2023/09/07 00:36:51;;;;;;;17.70;5.72;;;;;;;23.31;100.00;100408.31;5020779;28;20037;-78
2023/09/07 00:39:16;;;;;;;17.58;6.18;;;;;;;23.30;100.00;100409.53;5018207;28;20489;-78
2023/09/07 00:41:42;;;;;;;25.90;5.25;;;;;;;23.23;100.00;100398.91;5020913;28;20036;-78
2023/09/07 00:44:07;;;;;;;24.90;6.03;;;;;;;23.24;100.00;100409.03;5010549;28;20374;-78
2023/09/07 00:46:33;;;;;;;22.95;6.15;;;;;;;23.20;100.00;100406.13;5020344;28;20037;-78
2023/09/07 00:48:58;;;;;;;22.70;6.22;;;;;;;23.18;100.00;100407.75;5024426;28;20049;-78
2023/09/07 00:51:24;;;;;;;22.95;5.95;;;;;;;23.15;100.00;100400.00;5022429;28;20029;-78
2023/09/07 00:53:49;;;;;;;22.50;5.63;;;;;;;23.10;100.00;100391.84;4997881;28;20056;-78
2023/09/07 00:56:15;;;;;;;22.23;5.80;;;;;;;23.12;100.00;100403.59;5017636;28;20109;-78
2023/09/07 00:58:40;;;;;;;25.33;5.45;;;;;;;23.03;100.00;100386.88;5020194;28;20029;-78
2023/09/07 01:01:06;;;;;;;19.55;6.00;;;;;;;23.06;100.00;100385.28;5036874;28;20424;-78
2023/09/07 01:03:31;;;;;;;15.77;5.65;;;;;;;23.02;100.00;100384.44;5049480;28;20030;-78
2023/09/07 01:06:15;;;;;;;16.35;5.72;;;;;;;23.02;100.00;100385.25;5019744;28;20029;-78
2023/09/07 01:08:51;;;;;;;17.73;6.32;;;;;;;23.01;100.00;100382.78;5031713;28;20029;-78
2023/09/07 01:11:20;;;;;;;24.05;5.45;;;;;;;22.97;100.00;100377.91;5019370;28;20080;-78
2023/09/07 01:13:45;;;;;;;24.52;6.63;;;;;;;22.92;100.00;100381.00;5056267;28;20037;-78
2023/09/07 01:16:11;;;;;;;21.55;6.25;;;;;;;22.88;100.00;100379.34;5023680;28;20045;-78
2023/09/07 01:18:37;;;;;;;19.70;5.82;;;;;;;22.88;100.00;100388.66;5019853;28;20033;-78
2023/09/07 01:21:08;;;;;;;21.38;6.35;;;;;;;22.83;100.00;100379.66;5033002;28;20035;-78
2023/09/07 01:23:35;;;;;;;17.80;5.97;;;;;;;22.83;100.00;100383.31;5032256;28;20029;-78
2023/09/07 01:26:02;;;;;;;20.70;6.07;;;;;;;22.81;100.00;100380.03;5023164;28;20039;-78
2023/09/07 01:28:27;;;;;;;23.02;5.82;;;;;;;22.80;100.00;100372.75;5019806;28;20030;-78
2023/09/07 01:30:53;;;;;;;23.45;5.25;;;;;;;22.77;100.00;100367.84;5029048;28;20044;-78
2023/09/07 01:33:18;;;;;;;23.20;6.72;;;;;;;22.74;100.00;100374.28;5042979;28;20056;-78
2023/09/07 01:35:43;;;;;;;22.52;6.03;;;;;;;22.72;100.00;100376.66;5019339;28;20040;-78
2023/09/07 01:38:09;;;;;;;21.13;6.18;;;;;;;22.69;100.00;100368.94;5019823;28;20037;-78
2023/09/07 01:40:35;;;;;;;22.70;6.15;;;;;;;22.66;100.00;100372.53;5035499;28;20513;-78
2023/09/07 01:43:01;;;;;;;21.00;6.22;;;;;;;22.67;100.00;100368.50;5014444;28;20508;-78
2023/09/07 01:45:26;;;;;;;17.63;5.80;;;;;;;22.66;100.00;100369.69;5005028;28;20029;-78
2023/09/07 01:47:52;;;;;;;19.85;5.50;;;;;;;22.59;100.00;100367.56;5035849;28;20040;-78
2023/09/07 01:50:18;;;;;;;19.45;5.30;;;;;;;22.59;100.00;100370.38;5019182;28;20402;-78
2023/09/07 01:52:46;;;;;;;21.17;5.85;;;;;;;22.55;100.00;100360.22;5011745;28;20136;-78
2023/09/07 01:55:12;;;;;;;19.95;5.70;;;;;;;22.52;100.00;100359.78;5034453;28;20662;-78
2023/09/07 01:57:37;;;;;;;20.63;6.43;;;;;;;22.49;100.00;100357.69;5050679;28;20033;-78
2023/09/07 02:00:05;;;;;;;18.48;6.18;;;;;;;22.47;100.00;100356.44;5006109;28;20037;-78
2023/09/07 02:02:30;;;;;;;21.77;6.22;;;;;;;22.45;100.00;100356.00;5026787;28;20057;-78
2023/09/07 02:04:56;;;;;;;22.02;5.50;;;;;;;22.43;100.00;100359.22;5002809;28;20032;-78
2023/09/07 02:07:21;;;;;;;16.25;5.53;;;;;;;22.39;100.00;100351.84;5002487;28;20029;-78
2023/09/07 02:09:47;;;;;;;20.17;6.68;;;;;;;22.38;100.00;100356.72;5002812;28;20033;-78
2023/09/07 02:12:12;;;;;;;24.77;6.07;;;;;;;22.35;100.00;100351.00;5012292;28;20037;-78
2023/09/07 02:14:38;;;;;;;22.35;5.90;;;;;;;22.32;100.00;100354.59;5016140;28;20040;-78
2023/09/07 02:17:04;;;;;;;19.55;5.70;;;;;;;22.33;100.00;100348.53;5037634;28;20029;-78
2023/09/07 02:19:29;;;;;;;20.90;5.88;;;;;;;22.27;100.00;100348.03;5022249;28;20032;-78
2023/09/07 02:21:55;;;;;;;20.85;6.07;;;;;;;22.26;100.00;100343.59;5035334;28;20037;-78
2023/09/07 02:24:20;;;;;;;18.15;5.85;;;;;;;22.24;100.00;100350.81;5032449;28;20018;-78
2023/09/07 02:26:46;;;;;;;15.30;5.72;;;;;;;22.25;100.00;100350.41;5012204;28;20358;-78
2023/09/07 02:29:14;;;;;;;15.57;5.32;;;;;;;22.19;100.00;100348.28;5016139;28;20482;-78
2023/09/07 02:31:40;;;;;;;21.50;5.50;;;;;;;22.16;100.00;100352.66;4999374;28;20120;-78
2023/09/07 02:34:05;;;;;;;24.60;5.82;;;;;;;22.16;100.00;100355.47;5017479;28;20052;-78
2023/09/07 02:36:31;;;;;;;15.13;5.45;;;;;;;22.11;100.00;100347.31;5029725;28;20037;-78
2023/09/07 02:38:56;;;;;;;20.13;5.93;;;;;;;22.08;100.00;100346.03;5035404;28;20053;-78
2023/09/07 02:41:22;;;;;;;23.20;6.32;;;;;;;22.07;100.00;100347.25;5018770;28;20063;-78
2023/09/07 02:43:48;;;;;;;20.02;5.97;;;;;;;22.05;100.00;100354.47;5023177;28;20032;-78
2023/09/07 02:46:13;;;;;;;18.20;5.72;;;;;;;22.03;100.00;100349.19;5011326;28;20386;-78
2023/09/07 02:48:39;;;;;;;24.23;6.45;;;;;;;22.01;100.00;100343.09;5002463;28;20084;-78
2023/09/07 02:51:05;;;;;;;17.10;5.72;;;;;;;21.98;100.00;100343.84;5010204;28;20087;-78
2023/09/07 02:53:30;;;;;;;20.30;6.10;;;;;;;21.96;100.00;100340.59;5021526;28;20029;-78
2023/09/07 02:55:55;;;;;;;18.08;6.07;;;;;;;21.91;100.00;100338.06;5022174;28;20032;-78
2023/09/07 02:58:22;;;;;;;19.48;5.82;;;;;;;21.92;100.00;100338.88;5007662;28;20040;-78
2023/09/07 03:00:48;;;;;;;19.27;5.53;;;;;;;21.89;100.00;100331.16;5006141;28;20043;-78
2023/09/07 03:03:13;;;;;;;18.77;5.53;;;;;;;21.92;100.00;100334.03;5022324;28;20425;-78
2023/09/07 03:05:40;;;;;;;20.90;6.35;;;;;;;21.86;100.00;100339.16;5022070;28;20501;-78
2023/09/07 03:08:06;;;;;;;20.08;6.43;;;;;;;21.83;100.00;100328.63;5005664;28;20025;-78
2023/09/07 03:10:32;;;;;;;19.48;6.05;;;;;;;21.79;100.00;100336.22;5038558;28;20037;-78
2023/09/07 03:12:58;;;;;;;17.17;5.22;;;;;;;21.76;100.00;100339.00;5024044;28;20406;-78
2023/09/07 03:15:23;;;;;;;17.10;5.25;;;;;;;21.77;100.00;100332.94;5017612;28;20026;-77
2023/09/07 03:17:48;;;;;;;19.10;5.80;;;;;;;21.73;100.00;100334.06;5024847;28;20155;-78
2023/09/07 03:20:14;;;;;;;26.17;6.35;;;;;;;21.76;100.00;100336.16;5013622;28;20060;-77
2023/09/07 03:22:43;;;;;;;15.48;5.00;;;;;;;21.70;100.00;100327.16;5023507;28;20056;-77
2023/09/07 03:25:12;;;;;;;20.73;5.93;;;;;;;21.69;100.00;100325.53;5013421;28;20033;-78
2023/09/07 03:27:37;;;;;;;15.70;5.88;;;;;;;21.67;100.00;100330.72;5018502;28;20041;-78
2023/09/07 03:30:05;;;;;;;14.43;5.20;;;;;;;21.64;100.00;100328.66;5029265;28;20040;-78
2023/09/07 03:32:32;;;;;;;15.85;6.07;;;;;;;21.60;100.00;100334.25;5035252;28;20126;-78
2023/09/07 03:35:03;;;;;;;16.58;5.72;;;;;;;21.62;100.00;100331.88;5005361;28;20030;-78
2023/09/07 03:37:28;;;;;;;16.00;5.75;;;;;;;21.57;100.00;100334.19;5034859;28;20147;-78
2023/09/07 03:39:54;;;;;;;17.00;5.72;;;;;;;21.54;100.00;100330.09;5005402;28;20155;-78
2023/09/07 03:42:20;;;;;;;14.25;5.75;;;;;;;21.49;100.00;100336.03;5039556;28;20501;-78
2023/09/07 03:44:45;;;;;;;21.90;6.80;;;;;;;21.47;100.00;100334.75;5037972;28;20095;-78
2023/09/07 03:47:13;;;;;;;22.58;5.93;;;;;;;21.45;100.00;100335.13;5034760;28;20433;-78
2023/09/07 03:49:38;;;;;;;17.50;5.30;;;;;;;21.40;100.00;100329.81;5005424;28;20476;-77
2023/09/07 03:52:04;;;;;;;17.20;5.18;;;;;;;21.43;100.00;100334.69;5020980;28;20030;-77
2023/09/07 03:54:31;;;;;;;16.20;5.78;;;;;;;21.40;100.00;100336.25;5017364;28;20037;-78
2023/09/07 03:56:56;;;;;;;15.02;5.65;;;;;;;21.36;100.00;100337.34;5029209;28;20029;-78
2023/09/07 03:59:22;;;;;;;18.27;5.80;;;;;;;21.35;100.00;100338.53;4988630;28;20402;-78
2023/09/07 04:01:47;;;;;;;14.80;5.50;;;;;;;21.32;100.00;100344.94;5027289;28;20033;-77
2023/09/07 04:04:13;;;;;;;15.68;6.03;;;;;;;21.30;100.00;100344.47;5037130;28;20025;-78
2023/09/07 04:06:38;;;;;;;17.63;6.00;;;;;;;21.28;100.00;100341.19;5033945;28;20044;-78
2023/09/07 04:09:04;;;;;;;13.75;5.65;;;;;;;21.26;100.00;100343.59;5007287;28;20044;-78
2023/09/07 04:11:29;;;;;;;14.40;5.43;;;;;;;21.31;100.00;100344.13;5034295;28;20033;-78
2023/09/07 04:13:55;;;;;;;14.63;6.03;;;;;;;21.23;100.00;100344.31;5020974;28;20033;-78
2023/09/07 04:16:20;;;;;;;14.38;4.93;;;;;;;21.22;100.00;100340.66;5023988;28;20064;-78
2023/09/07 04:18:46;;;;;;;16.08;5.50;;;;;;;21.17;100.00;100344.63;5020909;28;20025;-78
2023/09/07 04:21:12;;;;;;;15.50;5.50;;;;;;;21.16;100.00;100340.16;5037103;28;20037;-78
2023/09/07 04:23:38;;;;;;;12.45;5.65;;;;;;;21.13;100.00;100346.53;5030643;28;20386;-78
2023/09/07 04:26:11;;;;;;;14.77;5.43;;;;;;;21.10;100.00;100341.63;5021278;28;20100;-78
2023/09/07 04:28:37;;;;;;;11.15;5.20;;;;;;;21.06;100.00;100337.94;5050505;28;20051;-78
2023/09/07 04:31:02;;;;;;;15.27;5.38;;;;;;;21.06;100.00;100340.75;5025293;28;20064;-77
2023/09/07 04:33:34;;;;;;;14.82;5.03;;;;;;;21.05;100.00;100336.28;5007015;28;20054;-78
2023/09/07 04:36:10;;;;;;;13.68;5.00;;;;;;;21.00;100.00;100339.38;5043566;28;20120;-78
2023/09/07 04:38:36;;;;;;;13.02;4.60;;;;;;;20.96;100.00;100332.84;5005584;28;20125;-78
2023/09/07 04:41:08;;;;;;;15.68;5.28;;;;;;;20.94;100.00;100335.22;5003157;28;20037;-77
2023/09/07 04:43:33;;;;;;;12.50;5.10;;;;;;;20.94;100.00;100335.22;5027130;28;20029;-77
2023/09/07 04:45:59;;;;;;;11.32;5.30;;;;;;;20.90;100.00;100335.13;5010177;28;20041;-78
2023/09/07 04:48:24;;;;;;;15.20;5.07;;;;;;;20.87;100.00;100330.22;5050025;28;20025;-78
2023/09/07 04:51:06;;;;;;;14.00;5.10;;;;;;;20.90;100.00;100337.97;5029195;28;20041;-78
2023/09/07 04:53:33;;;;;;;14.70;5.85;;;;;;;20.84;100.00;100338.59;5024982;28;20040;-77
2023/09/07 04:55:59;;;;;;;16.63;5.38;;;;;;;20.82;100.00;100329.69;5020547;28;20041;-77
2023/09/07 04:58:24;;;;;;;12.85;5.30;;;;;;;20.82;100.00;100338.16;5002106;28;20033;-78
2023/09/07 05:00:50;;;;;;;16.60;5.70;;;;;;;20.76;100.00;100329.16;5031624;28;20520;-77
2023/09/07 05:03:16;;;;;;;14.27;5.20;;;;;;;20.75;100.00;100334.00;5023156;28;20031;-78
2023/09/07 05:05:41;;;;;;;11.73;5.30;;;;;;;20.77;100.00;100342.09;5056206;28;20029;-78
2023/09/07 05:08:07;;;;;;;15.20;5.25;;;;;;;20.74;100.00;100340.81;5039668;28;20533;-78
2023/09/07 05:10:36;;;;;;;15.23;5.10;;;;;;;20.69;100.00;100338.28;5028475;28;20450;-77
2023/09/07 05:13:01;;;;;;;13.13;5.75;;;;;;;20.66;100.00;100343.84;5009081;28;20059;-77
2023/09/07 05:15:27;;;;;;;15.63;5.90;;;;;;;20.69;100.00;100341.09;5015650;28;20506;-77
2023/09/07 05:17:53;;;;;;;16.83;5.85;;;;;;;20.66;100.00;100341.00;5024210;28;20052;-78
2023/09/07 05:20:18;;;;;;;15.63;5.60;;;;;;;20.62;100.00;100346.59;5056131;28;20029;-78
2023/09/07 05:22:44;;;;;;;15.63;5.53;;;;;;;20.62;100.00;100346.59;5056403;28;20021;-78
2023/09/07 05:25:09;;;;;;;14.82;5.90;;;;;;;20.58;100.00;100351.31;5039457;28;20033;-77
2023/09/07 05:27:35;;;;;;;13.90;5.65;;;;;;;20.61;100.00;100342.09;5019922;28;20060;-77
2023/09/07 05:30:02;;;;;;;19.98;6.32;;;;;;;20.58;100.00;100348.47;5029246;28;20033;-78
2023/09/07 05:32:27;;;;;;;13.57;5.32;;;;;;;20.55;100.00;100352.03;5022991;28;20099;-77
2023/09/07 05:34:52;;;;;;;17.08;6.57;;;;;;;20.54;100.00;100350.41;5009477;28;20030;-78
2023/09/07 05:37:19;;;;;;;18.70;6.22;;;;;;;20.54;100.00;100353.22;5014950;28;20092;-78
2023/09/07 05:39:45;;;;;;;13.10;5.93;;;;;;;20.53;100.00;100360.03;5011107;28;20104;-77
2023/09/07 05:42:12;;;;;;;19.40;5.50;;;;;;;20.53;100.00;100360.03;5049164;28;20033;-77
2023/09/07 05:44:37;;;;;;;14.38;5.75;;;;;;;20.51;100.00;100359.56;5031062;28;20171;-78
2023/09/07 05:47:03;;;;;;;17.75;6.30;;;;;;;20.53;100.00;100362.84;5021377;28;20061;-77
2023/09/07 05:49:29;;;;;;;16.65;5.82;;;;;;;20.51;100.00;100363.22;5014462;28;20473;-78
2023/09/07 05:51:54;;;;;;;19.27;6.03;;;;;;;20.52;100.00;100362.00;5037233;28;20036;-77
2023/09/07 05:54:20;;;;;;;16.98;5.75;;;;;;;20.51;100.00;100366.03;5027591;28;20454;-77
2023/09/07 05:56:46;;;;;;;16.00;5.63;;;;;;;20.53;100.00;100362.84;5028574;28;20497;-78
2023/09/07 05:59:11;;;;;;;14.43;5.63;;;;;;;20.53;100.00;100362.84;5011333;28;20393;-78
2023/09/07 06:01:37;;;;;;;13.93;5.63;;;;;;;20.56;100.00;100376.25;5004799;28;20033;-78
2023/09/07 06:04:02;;;;;;;13.35;5.28;;;;;;;20.56;100.00;100372.59;5011114;28;20091;-78
2023/09/07 06:06:28;;;;;;;14.25;5.18;;;;;;;20.59;100.00;100367.06;5048737;28;20100;-78
2023/09/07 06:08:54;;;;;;;14.23;5.45;;;;;;;20.63;100.00;100370.78;5019121;28;20560;-78
2023/09/07 06:11:19;;;;;;;14.63;5.70;;;;;;;20.69;100.00;100369.31;5034416;28;20033;-78
2023/09/07 06:13:46;;;;;;;16.25;6.45;;;;;;;20.69;100.00;100366.50;5019263;28;20040;-77
2023/09/07 06:16:12;;;;;;;10.30;5.03;;;;;;;20.72;100.00;100367.75;5037851;28;20030;-78
2023/09/07 06:18:37;;;;;;;13.70;6.00;;;;;;;20.77;100.00;100361.03;5035549;28;20386;-78
2023/09/07 06:21:05;;;;;;;11.77;5.47;;;;;;;20.85;100.00;100365.66;5002394;28;20037;-79
2023/09/07 06:23:31;;;;;;;12.73;4.97;;;;;;;20.90;100.00;100357.72;4986743;28;20095;-79
2023/09/07 06:25:56;;;;;;;10.70;5.10;;;;;;;20.97;100.00;100369.16;5032268;28;20057;-79
2023/09/07 06:28:22;;;;;;;13.15;5.32;;;;;;;21.07;100.00;100362.13;5051928;28;20393;-79
2023/09/07 06:30:47;;;;;;;12.50;5.18;;;;;;;21.13;100.00;100368.31;5023153;28;20363;-79
2023/09/07 06:33:13;;;;;;;11.98;5.25;;;;;;;21.19;100.00;100359.16;5016025;28;20045;-79
2023/09/07 06:35:39;;;;;;;10.18;5.00;;;;;;;21.28;100.00;100369.44;5042901;28;20041;-79
2023/09/07 06:38:04;;;;;;;12.32;5.53;;;;;;;21.35;100.00;100363.97;5006803;28;20076;-79
2023/09/07 06:40:29;;;;;;;13.50;5.40;;;;;;;21.45;100.00;100365.38;5022917;28;20028;-79
2023/09/07 06:42:57;;;;;;;17.15;5.80;;;;;;;21.54;100.00;100369.63;5025928;28;20428;-79
2023/09/07 06:45:23;;;;;;;12.93;5.00;;;;;;;21.61;100.00;100369.78;5026226;28;20481;-79
2023/09/07 06:47:52;;;;;;;12.38;5.88;;;;;;;21.71;100.00;100367.56;5039160;28;20057;-79
2023/09/07 06:50:18;;;;;;;13.85;5.60;;;;;;;21.80;100.00;100368.94;5035217;28;20044;-79
2023/09/07 06:52:43;;;;;;;19.75;6.60;;;;;;;21.93;100.00;100368.78;5042303;28;20032;-79
2023/09/07 06:55:09;;;;;;;16.08;5.57;;;;;;;22.02;100.00;100366.53;5022316;28;20569;-79
2023/09/07 06:57:34;;;;;;;11.73;5.80;;;;;;;22.13;100.00;100372.41;5033793;28;20056;-79
2023/09/07 07:00:00;;;;;;;13.68;5.82;;;;;;;22.24;100.00;100374.25;5008141;28;20026;-79
2023/09/07 07:02:25;;;;;;;12.05;5.07;;;;;;;22.37;100.00;100371.22;5030911;28;20425;-79
2023/09/07 07:04:51;;;;;;;14.02;6.15;;;;;;;22.50;100.00;100369.84;5040026;28;20128;-78
2023/09/07 07:07:17;;;;;;;14.43;6.13;;;;;;;22.63;100.00;100378.94;5005707;28;20036;-79
2023/09/07 07:09:43;;;;;;;15.85;6.20;;;;;;;22.77;100.00;100381.19;5018769;28;20026;-78
2023/09/07 07:12:08;;;;;;;13.23;5.45;;;;;;;22.89;100.00;100381.78;5034056;28;20071;-77
2023/09/07 07:14:34;;;;;;;16.00;5.88;;;;;;;23.02;100.00;100378.78;5023451;28;20486;-79
2023/09/07 07:17:01;;;;;;;14.68;5.35;;;;;;;23.16;100.00;100378.97;5024099;28;20032;-79
2023/09/07 07:19:27;;;;;;;16.08;6.40;;;;;;;23.30;100.00;100384.84;5036733;28;20059;-78
2023/09/07 07:21:52;;;;;;;13.05;5.60;;;;;;;23.41;100.00;100382.97;4998070;28;20064;-79
2023/09/07 07:24:18;;;;;;;16.70;5.90;;;;;;;23.56;100.00;100386.78;5025368;28;20047;-79
2023/09/07 07:26:44;;;;;;;12.85;5.82;;;;;;;23.70;100.00;100380.50;5032695;28;20547;-79
2023/09/07 07:29:09;;;;;;;15.35;5.57;;;;;;;23.85;100.00;100373.00;5035883;28;20570;-78
2023/09/07 07:31:35;;;;;;;14.65;5.63;;;;;;;23.97;100.00;100384.06;5051006;28;20033;-79
2023/09/07 07:34:00;;;;;;;16.45;6.35;;;;;;;24.07;100.00;100369.19;5002032;28;20520;-79
2023/09/07 07:36:26;;;;;;;19.42;6.10;;;;;;;24.18;100.00;100380.66;5048600;28;20037;-78
2023/09/07 07:38:51;;;;;;;12.90;5.90;;;;;;;24.31;100.00;100386.84;5038816;28;20474;-79
2023/09/07 07:41:17;;;;;;;16.75;5.60;;;;;;;24.46;100.00;100382.97;5048526;28;20037;-79
2023/09/07 07:43:42;;;;;;;13.45;5.07;;;;;;;24.58;100.00;100375.38;5038236;28;20025;-79
2023/09/07 07:46:08;;;;;;;13.07;5.30;;;;;;;24.69;100.00;100376.28;5028673;28;20025;-79
2023/09/07 07:48:35;;;;;;;15.43;5.90;;;;;;;24.83;100.00;100384.09;5035081;28;20067;-78
2023/09/07 07:51:04;;;;;;;14.57;5.50;;;;;;;24.98;100.00;100388.66;5032028;28;20147;-78
2023/09/07 07:53:30;;;;;;;13.32;5.15;;;;;;;25.11;100.00;100381.44;5031156;28;20044;-78
2023/09/07 07:55:57;;;;;;;11.68;5.20;;;;;;;25.26;100.00;100385.19;5021190;28;20045;-78
2023/09/07 07:58:22;;;;;;;16.42;4.82;;;;;;;25.36;100.00;100377.94;5022427;28;20385;-79
2023/09/07 08:00:49;;;;;;;14.07;4.90;;;;;;;25.53;100.00;100388.59;4997196;28;20121;-79
2023/09/07 08:03:15;;;;;;;17.95;5.43;;;;;;;25.69;100.00;100378.91;4988626;28;20029;-78
2023/09/07 08:05:40;;;;;;;14.77;4.63;;;;;;;25.84;100.00;100380.59;5037670;28;20143;-79
2023/09/07 08:08:06;;;;;;;12.68;4.75;;;;;;;26.04;100.00;100389.59;5037767;28;20148;-79
2023/09/07 08:10:36;;;;;;;11.48;4.20;;;;;;;26.20;100.00;100389.25;5051727;28;20485;-79
2023/09/07 08:13:02;;;;;;;9.75;4.30;;;;;;;26.35;100.00;100393.72;5050847;28;20037;-79
2023/09/07 08:15:28;;;;;;;8.00;3.90;;;;;;;26.50;100.00;100395.41;5026410;28;20041;-79
2023/09/07 08:17:56;;;;;;;9.50;4.38;;;;;;;26.63;100.00;100392.16;5047364;28;20439;-78
2023/09/07 08:20:21;;;;;;;9.55;4.30;;;;;;;26.78;100.00;100390.94;5028324;28;20037;-79
2023/09/07 08:22:47;;;;;;;11.35;4.78;;;;;;;26.91;100.00;100383.59;5021198;28;20029;-79
2023/09/07 08:25:13;;;;;;;11.60;4.05;;;;;;;27.07;100.00;100382.34;5051680;28;20382;-79
2023/09/07 08:27:44;;;;;;;9.52;3.88;;;;;;;27.20;100.00;100380.72;5020980;28;20533;-79
2023/09/07 08:30:15;;;;;;;9.93;4.20;;;;;;;27.36;100.00;100378.22;5002089;28;20039;-79
2023/09/07 08:32:41;;;;;;;7.20;4.28;;;;;;;27.53;100.00;100375.72;5041574;28;20045;-78
2023/09/07 08:35:09;;;;;;;10.27;4.65;;;;;;;27.60;100.00;100373.66;5036593;28;20437;-79
2023/09/07 08:37:34;;;;;;;9.63;4.03;;;;;;;27.80;100.00;100373.19;5007599;28;20496;-79
2023/09/07 08:40:00;;;;;;;12.20;4.63;;;;;;;27.98;100.00;100370.25;5030252;28;20033;-79
2023/09/07 08:42:25;;;;;;;8.63;4.32;;;;;;;28.10;100.00;100375.44;5036587;28;20442;-79
2023/09/07 08:44:51;;;;;;;9.73;4.63;;;;;;;28.23;100.00;100373.75;5039835;28;20040;-78
2023/09/07 08:47:17;;;;;;;9.13;3.88;;;;;;;28.39;100.00;100373.22;5020823;28;20554;-79
2023/09/07 08:49:43;;;;;;;9.55;3.90;;;;;;;28.56;100.00;100374.34;5049398;28;20485;-78
2023/09/07 08:52:08;;;;;;;8.50;4.20;;;;;;;28.72;100.00;100368.91;5049670;28;20055;-79
2023/09/07 08:54:34;;;;;;;11.10;4.18;;;;;;;28.84;100.00;100378.19;5030275;28;20095;-79
2023/09/07 08:57:03;;;;;;;6.70;3.60;;;;;;;29.01;100.00;100370.66;5027399;28;20095;-79
2023/09/07 08:59:30;;;;;;;9.18;4.13;;;;;;;29.16;100.00;100363.59;5049955;28;20335;-78
2023/09/07 09:01:58;;;;;;;8.57;4.60;;;;;;;29.28;100.00;100365.06;5016347;28;20037;-79
2023/09/07 09:04:28;;;;;;;12.15;4.40;;;;;;;29.40;100.00;100367.41;5016294;28;20029;-79
2023/09/07 09:06:53;;;;;;;7.40;4.18;;;;;;;29.55;100.00;100365.16;5031829;28;20065;-79
2023/09/07 09:09:25;;;;;;;7.50;3.83;;;;;;;29.69;100.00;100373.59;5020187;28;20112;-79
2023/09/07 09:11:51;;;;;;;9.23;3.80;;;;;;;29.82;100.00;100368.94;5026487;28;20036;-79
2023/09/07 09:14:18;;;;;;;8.77;4.20;;;;;;;29.95;100.00;100369.16;5034964;28;20025;-79
2023/09/07 09:16:49;;;;;;;13.82;4.03;;;;;;;30.11;100.00;100365.66;5040087;28;20041;-79
2023/09/07 09:19:14;;;;;;;11.30;4.85;;;;;;;30.26;100.00;100374.88;5020002;28;20031;-79
2023/09/07 09:21:40;;;;;;;8.95;4.10;;;;;;;30.35;100.00;100375.13;5048102;28;20028;-79
2023/09/07 09:24:09;;;;;;;8.65;4.40;;;;;;;30.46;100.00;100384.38;5039693;28;20021;-79
2023/09/07 09:26:37;;;;;;;9.55;4.10;;;;;;;30.63;100.00;100378.78;5020205;28;20037;-79
2023/09/07 09:29:02;;;;;;;10.65;4.30;;;;;;;30.75;100.00;100371.63;5037581;28;20041;-79
2023/09/07 09:31:27;;;;;;;9.32;3.83;;;;;;;30.89;100.00;100377.13;5037692;28;20040;-79
2023/09/07 09:33:53;;;;;;;13.70;4.03;;;;;;;31.05;100.00;100382.16;5019506;28;20410;-79
2023/09/07 09:36:19;;;;;;;8.07;3.53;;;;;;;31.19;100.00;100381.09;5045502;28;20067;-79
2023/09/07 09:38:50;;;;;;;8.35;3.58;;;;;;;31.31;100.00;100386.97;5040290;28;20045;-79
2023/09/07 09:41:17;;;;;;;7.22;3.40;;;;;;;31.46;100.00;100392.47;5003968;28;20363;-79
2023/09/07 09:43:44;;;;;;;7.28;3.67;;;;;;;31.60;100.00;100392.19;5039874;28;20091;-79
2023/09/07 09:46:09;;;;;;;9.15;4.00;;;;;;;31.75;100.00;100396.34;5036831;28;20056;-79
2023/09/07 09:48:35;;;;;;;11.07;3.45;;;;;;;31.86;100.00;100383.84;5049221;28;20025;-79
2023/09/07 09:51:01;;;;;;;8.45;3.50;;;;;;;32.02;100.00;100389.66;5001481;28;20121;-79
2023/09/07 09:53:27;;;;;;;9.23;3.85;;;;;;;32.16;100.00;100394.28;5020378;28;20045;-79
2023/09/07 09:55:53;;;;;;;15.50;4.32;;;;;;;32.29;100.00;100386.59;5020040;28;20025;-79
2023/09/07 09:58:19;;;;;;;10.98;3.35;;;;;;;32.43;100.00;100389.09;5033160;28;20064;-79
2023/09/07 10:00:48;;;;;;;8.63;3.80;;;;;;;32.57;100.00;100390.84;5027167;28;20034;-79
2023/09/07 10:03:17;;;;;;;9.30;3.72;;;;;;;32.71;100.00;100387.59;5021291;28;20033;-79
2023/09/07 10:05:44;;;;;;;11.02;4.10;;;;;;;32.83;100.00;100388.94;5039904;28;20100;-79
2023/09/07 10:08:13;;;;;;;10.88;3.90;;;;;;;32.99;100.00;100387.28;5025944;28;20029;-79
2023/09/07 10:10:38;;;;;;;11.52;4.32;;;;;;;33.11;100.00;100384.53;5047598;28;20040;-79
2023/09/07 10:13:04;;;;;;;11.10;4.10;;;;;;;33.27;100.00;100391.50;5024925;28;20049;-79
2023/09/07 10:15:31;;;;;;;9.60;3.85;;;;;;;33.39;100.00;100390.75;5039796;28;20085;-79
2023/09/07 10:18:12;;;;;;;9.80;3.88;;;;;;;33.51;96.60;100380.53;5047530;28;20053;-79
2023/09/07 10:20:52;;;;;;;15.07;3.97;;;;;;;33.67;100.00;100379.69;5012163;28;20113;-79
2023/09/07 10:23:18;;;;;;;7.80;3.80;;;;;;;33.79;100.00;100382.63;5023981;28;20266;-79
2023/09/07 10:25:56;;;;;;;8.15;3.83;;;;;;;33.90;100.00;100373.63;5006995;28;20037;-79
2023/09/07 10:28:23;;;;;;;7.13;3.33;;;;;;;34.03;100.00;100374.44;5036899;28;20396;-79
2023/09/07 10:31:17;;;;;;;8.27;3.45;;;;;;;34.15;100.00;100369.19;5002829;28;20029;-79
2023/09/07 10:33:42;;;;;;;6.78;2.78;;;;;;;34.22;93.76;100369.78;5018477;28;20045;-79
2023/09/07 10:36:08;;;;;;;5.63;3.40;;;;;;;34.36;98.99;100367.69;5036332;28;20076;-79
2023/09/07 10:38:34;;;;;;;8.80;3.15;;;;;;;34.46;96.80;100370.22;5040356;28;20025;-78
2023/09/07 10:41:01;;;;;;;8.35;3.10;;;;;;;34.53;85.69;100365.50;5004041;28;20029;-79
2023/09/07 10:43:30;;;;;;;9.73;3.78;;;;;;;34.61;88.89;100361.13;5025829;28;20040;-79
2023/09/07 10:45:56;;;;;;;7.55;3.30;;;;;;;34.72;91.42;100367.34;5021565;28;20048;-79
2023/09/07 10:48:25;;;;;;;8.13;3.30;;;;;;;34.82;86.76;100359.56;5018135;28;20021;-79
2023/09/07 10:50:51;;;;;;;7.45;3.50;;;;;;;34.87;87.10;100356.88;5038287;28;20037;-79
2023/09/07 10:53:24;;;;;;;6.57;3.13;;;;;;;35.00;91.95;100358.94;5039272;28;20029;-79
2023/09/07 10:55:51;;;;;;;9.25;3.60;;;;;;;35.10;93.73;100355.72;5045071;28;20060;-79
2023/09/07 10:58:28;;;;;;;10.15;4.25;;;;;;;35.25;86.88;100347.31;5009100;28;20040;-79
2023/09/07 11:00:54;;;;;;;13.98;4.45;;;;;;;35.35;83.39;100349.03;5015870;28;20041;-79
2023/09/07 11:03:20;;;;;;;10.32;4.28;;;;;;;35.42;81.29;100345.03;5038720;28;20120;-79
2023/09/07 11:05:46;;;;;;;7.63;3.95;;;;;;;35.49;80.77;100343.97;5030869;28;20022;-79
2023/09/07 11:08:11;;;;;;;11.40;4.03;;;;;;;35.56;81.80;100349.50;5021355;28;20033;-79